createdAt,value
2017-01-19T00:00:17.867Z,1031.04
2017-01-19T00:01:17.838Z,1031.01
2017-01-19T00:02:17.808Z,1030.97
2017-01-19T00:03:17.779Z,1030.96
2017-01-19T00:04:17.766Z,1030.97
2017-01-19T00:05:17.723Z,1030.94
2017-01-19T00:06:17.694Z,1030.97
2017-01-19T00:07:17.663Z,1030.95
2017-01-19T00:08:17.643Z,1030.95
2017-01-19T00:09:17.616Z,1030.93
2017-01-19T00:10:17.581Z,1030.92
2017-01-19T00:11:17.550Z,1030.92
2017-01-19T00:12:17.523Z,1030.95
2017-01-19T00:13:17.495Z,1030.96
2017-01-19T00:14:17.469Z,1030.93
2017-01-19T00:15:17.436Z,1030.86
2017-01-19T00:16:17.407Z,1030.92
2017-01-19T00:17:17.379Z,1030.9
2017-01-19T00:18:17.348Z,1030.89
2017-01-19T00:19:17.324Z,1030.87
2017-01-19T00:20:17.295Z,1030.88
2017-01-19T00:21:17.264Z,1030.83
2017-01-19T00:22:17.240Z,1030.83
2017-01-19T00:23:17.213Z,1030.86
2017-01-19T00:24:17.184Z,1030.86
2017-01-19T00:25:17.149Z,1030.83
2017-01-19T00:26:17.122Z,1030.84
2017-01-19T00:27:17.095Z,1030.82
2017-01-19T00:28:17.070Z,1030.83
2017-01-19T00:29:17.041Z,1030.86
2017-01-19T00:30:17.009Z,1030.83
2017-01-19T00:31:16.982Z,1030.88
2017-01-19T00:32:16.950Z,1030.83
2017-01-19T00:33:16.922Z,1030.84
2017-01-19T00:34:16.896Z,1030.84
2017-01-19T00:35:16.869Z,1030.82
2017-01-19T00:36:16.839Z,1030.85
2017-01-19T00:37:16.807Z,1030.87
2017-01-19T00:38:16.783Z,1030.84
2017-01-19T00:39:16.751Z,1030.8
2017-01-19T00:40:16.724Z,1030.83
2017-01-19T00:41:16.719Z,1030.89
2017-01-19T00:42:16.667Z,1030.93
2017-01-19T00:43:16.640Z,1030.86
2017-01-19T00:44:16.609Z,1030.88
2017-01-19T00:45:16.586Z,1030.89
2017-01-19T00:46:16.558Z,1030.93
2017-01-19T00:47:16.528Z,1030.92
2017-01-19T00:48:16.497Z,1030.92
2017-01-19T00:49:16.477Z,1030.94
2017-01-19T00:50:16.445Z,1030.95
2017-01-19T00:51:16.412Z,1030.94
2017-01-19T00:52:16.385Z,1030.87
2017-01-19T00:53:16.354Z,1030.89
2017-01-19T00:54:16.325Z,1030.89
2017-01-19T00:55:16.304Z,1030.92
2017-01-19T00:56:16.268Z,1030.93
2017-01-19T00:57:16.242Z,1030.93
2017-01-19T00:58:16.211Z,1030.92
2017-01-19T00:59:16.240Z,1030.89
2017-01-19T01:00:16.154Z,1030.91
2017-01-19T01:01:16.176Z,1030.9
2017-01-19T01:02:16.098Z,1030.86
2017-01-19T01:03:16.073Z,1030.87
2017-01-19T01:04:16.052Z,1030.87
2017-01-19T01:05:16.017Z,1030.81
2017-01-19T01:06:15.986Z,1030.84
2017-01-19T01:07:15.956Z,1030.83
2017-01-19T01:08:15.934Z,1030.89
2017-01-19T01:09:15.906Z,1030.92
2017-01-19T01:10:15.870Z,1030.88
2017-01-19T01:11:15.846Z,1030.93
2017-01-19T01:12:15.812Z,1030.95
2017-01-19T01:13:15.793Z,1030.86
2017-01-19T01:14:15.758Z,1030.85
2017-01-19T01:15:15.730Z,1030.86
2017-01-19T01:16:15.699Z,1030.8
2017-01-19T01:17:15.673Z,1030.83
2017-01-19T01:18:15.643Z,1030.83
2017-01-19T01:19:15.619Z,1030.8
2017-01-19T01:20:15.588Z,1030.82
2017-01-19T01:21:15.556Z,1030.84
2017-01-19T01:22:15.536Z,1030.84
2017-01-19T01:23:15.499Z,1030.81
2017-01-19T01:24:15.472Z,1030.87
2017-01-19T01:25:15.444Z,1030.87
2017-01-19T01:26:15.415Z,1030.86
2017-01-19T01:27:15.393Z,1030.87
2017-01-19T01:28:15.359Z,1030.89
2017-01-19T01:29:15.328Z,1030.91
2017-01-19T01:30:15.302Z,1030.86
2017-01-19T01:31:15.281Z,1030.86
2017-01-19T01:32:15.251Z,1030.84
2017-01-19T01:33:15.218Z,1030.91
2017-01-19T01:34:15.185Z,1030.87
2017-01-19T01:35:15.159Z,1030.89
2017-01-19T01:36:15.135Z,1030.88
2017-01-19T01:37:15.107Z,1030.92
2017-01-19T01:38:15.077Z,1030.95
2017-01-19T01:39:15.043Z,1030.89
2017-01-19T01:40:15.014Z,1030.93
2017-01-19T01:41:14.991Z,1030.94
2017-01-19T01:42:14.964Z,1030.96
2017-01-19T01:43:14.933Z,1030.96
2017-01-19T01:44:14.901Z,1030.98
2017-01-19T01:45:14.873Z,1030.95
2017-01-19T01:46:14.845Z,1030.95
2017-01-19T01:47:14.823Z,1030.89
2017-01-19T01:48:14.842Z,1030.89
2017-01-19T01:49:14.762Z,1030.92
2017-01-19T01:50:14.742Z,1030.88
2017-01-19T01:51:14.710Z,1030.86
2017-01-19T01:52:14.686Z,1030.92
2017-01-19T01:53:14.652Z,1030.93
2017-01-19T01:54:14.626Z,1030.99
2017-01-19T01:55:14.611Z,1030.95
2017-01-19T01:56:14.571Z,1030.98
2017-01-19T01:57:14.541Z,1031.03
2017-01-19T01:58:14.509Z,1030.99
2017-01-19T01:59:14.492Z,1031
2017-01-19T02:00:14.453Z,1031.06
2017-01-19T02:01:14.429Z,1031.07
2017-01-19T02:02:14.399Z,1031.04
2017-01-19T02:03:14.372Z,1031.09
2017-01-19T02:04:14.344Z,1031.05
2017-01-19T02:05:14.315Z,1030.98
2017-01-19T02:06:14.288Z,1031.01
2017-01-19T02:07:14.258Z,1031.02
2017-01-19T02:08:14.227Z,1031
2017-01-19T02:09:14.203Z,1031.01
2017-01-19T02:10:14.170Z,1031
2017-01-19T02:11:14.145Z,1031.02
2017-01-19T02:12:14.115Z,1031.01
2017-01-19T02:13:14.091Z,1031.05
2017-01-19T02:14:14.059Z,1031.09
2017-01-19T02:15:14.029Z,1031.04
2017-01-19T02:16:14.000Z,1031.04
2017-01-19T02:17:13.974Z,1031.09
2017-01-19T02:18:13.953Z,1031.07
2017-01-19T02:19:13.921Z,1031.06
2017-01-19T02:20:13.894Z,1031.05
2017-01-19T02:21:13.866Z,1031.1
2017-01-19T02:22:13.834Z,1031.14
2017-01-19T02:23:13.806Z,1031.1
2017-01-19T02:24:13.777Z,1031.15
2017-01-19T02:25:13.747Z,1031.12
2017-01-19T02:26:13.723Z,1031.1
2017-01-19T02:27:13.692Z,1031.07
2017-01-19T02:28:13.664Z,1031.09
2017-01-19T02:29:13.636Z,1031.07
2017-01-19T02:30:13.610Z,1031.04
2017-01-19T02:31:13.581Z,1031.07
2017-01-19T02:32:13.551Z,1031.06
2017-01-19T02:33:13.526Z,1031.07
2017-01-19T02:34:13.496Z,1031.06
2017-01-19T02:35:13.472Z,1031.06
2017-01-19T02:36:13.439Z,1031.11
2017-01-19T02:37:13.421Z,1031.09
2017-01-19T02:38:13.390Z,1031.12
2017-01-19T02:39:13.359Z,1031.09
2017-01-19T02:40:13.327Z,1031.12
2017-01-19T02:41:13.299Z,1031.12
2017-01-19T02:42:13.268Z,1031.16
2017-01-19T02:43:13.247Z,1031.19
2017-01-19T02:44:13.212Z,1031.14
2017-01-19T02:45:13.188Z,1031.19
2017-01-19T02:46:13.156Z,1031.12
2017-01-19T02:47:13.127Z,1031.12
2017-01-19T02:48:13.106Z,1031.07
2017-01-19T02:49:13.071Z,1031.09
2017-01-19T02:50:13.046Z,1031.07
2017-01-19T02:51:13.016Z,1031.04
2017-01-19T02:52:12.986Z,1031.07
2017-01-19T02:53:12.962Z,1031.04
2017-01-19T02:54:12.930Z,1031.02
2017-01-19T02:55:12.905Z,1031.04
2017-01-19T02:56:12.873Z,1031.05
2017-01-19T02:57:12.854Z,1031.07
2017-01-19T02:58:12.824Z,1031.05
2017-01-19T02:59:12.794Z,1031.05
2017-01-19T03:00:12.763Z,1031.06
2017-01-19T03:01:12.734Z,1031.02
2017-01-19T03:02:12.703Z,1031.01
2017-01-19T03:03:12.677Z,1031.03
2017-01-19T03:04:12.646Z,1031.03
2017-01-19T03:05:12.619Z,1031.04
2017-01-19T03:06:12.592Z,1031.07
2017-01-19T03:07:12.568Z,1031.03
2017-01-19T03:08:12.536Z,1031.04
2017-01-19T03:09:12.504Z,1031.07
2017-01-19T03:10:12.478Z,1031.09
2017-01-19T03:11:12.447Z,1031.09
2017-01-19T03:12:12.425Z,1031.1
2017-01-19T03:13:12.394Z,1031.12
2017-01-19T03:14:12.363Z,1031.1
2017-01-19T03:15:12.336Z,1031.14
2017-01-19T03:16:12.306Z,1031.1
2017-01-19T03:17:12.277Z,1031.12
2017-01-19T03:18:12.254Z,1031.08
2017-01-19T03:19:12.221Z,1031.07
2017-01-19T03:20:12.190Z,1031.06
2017-01-19T03:21:12.169Z,1031.07
2017-01-19T03:22:12.136Z,1030.98
2017-01-19T03:23:12.108Z,1031.01
2017-01-19T03:24:12.079Z,1030.97
2017-01-19T03:25:12.048Z,1030.97
2017-01-19T03:26:12.022Z,1030.92
2017-01-19T03:27:11.993Z,1030.93
2017-01-19T03:28:11.963Z,1030.91
2017-01-19T03:29:11.934Z,1030.9
2017-01-19T03:30:11.904Z,1030.93
2017-01-19T03:31:11.882Z,1030.95
2017-01-19T03:32:11.851Z,1030.92
2017-01-19T03:33:11.831Z,1030.92
2017-01-19T03:34:11.788Z,1030.95
2017-01-19T03:35:11.759Z,1031.01
2017-01-19T03:36:11.729Z,1030.99
2017-01-19T03:37:11.700Z,1031
2017-01-19T03:38:11.674Z,1031
2017-01-19T03:39:11.649Z,1031.03
2017-01-19T03:40:11.612Z,1031.05
2017-01-19T03:41:11.587Z,1031.11
2017-01-19T03:42:11.555Z,1031.1
2017-01-19T03:43:11.526Z,1031.11
2017-01-19T03:44:11.500Z,1031.1
2017-01-19T03:45:11.470Z,1031.13
2017-01-19T03:46:11.440Z,1031.09
2017-01-19T03:47:11.414Z,1031.09
2017-01-19T03:48:11.384Z,1031.11
2017-01-19T03:49:11.364Z,1031.16
2017-01-19T03:50:11.333Z,1031.1
2017-01-19T03:51:11.303Z,1031.14
2017-01-19T03:52:11.272Z,1031.19
2017-01-19T03:53:11.243Z,1031.17
2017-01-19T03:54:11.211Z,1031.14
2017-01-19T03:55:11.186Z,1031.12
2017-01-19T03:56:11.154Z,1031.09
2017-01-19T03:57:11.130Z,1031.14
2017-01-19T03:58:11.095Z,1031.13
2017-01-19T03:59:11.068Z,1031.09
2017-01-19T04:00:11.049Z,1031.13
2017-01-19T04:01:11.018Z,1031.11
2017-01-19T04:02:10.987Z,1031.11
2017-01-19T04:03:10.952Z,1031.11
2017-01-19T04:04:10.926Z,1031.1
2017-01-19T04:05:10.898Z,1031.14
2017-01-19T04:06:10.870Z,1031.13
2017-01-19T04:07:10.844Z,1031.14
2017-01-19T04:08:10.815Z,1031.1
2017-01-19T04:09:10.784Z,1031.11
2017-01-19T04:10:10.754Z,1031.14
2017-01-19T04:11:10.733Z,1031.1
2017-01-19T04:12:10.703Z,1031.13
2017-01-19T04:13:10.672Z,1031.11
2017-01-19T04:14:10.642Z,1031.13
2017-01-19T04:15:10.612Z,1031.11
2017-01-19T04:16:10.585Z,1031.17
2017-01-19T04:17:10.561Z,1031.12
2017-01-19T04:18:10.526Z,1031.15
2017-01-19T04:19:10.500Z,1031.09
2017-01-19T04:20:10.470Z,1031.08
2017-01-19T04:21:10.450Z,1031.04
2017-01-19T04:22:10.418Z,1031.04
2017-01-19T04:23:10.388Z,1031.01
2017-01-19T04:24:10.358Z,1030.96
2017-01-19T04:25:10.377Z,1030.98
2017-01-19T04:26:10.296Z,1030.95
2017-01-19T04:27:10.326Z,1030.95
2017-01-19T04:28:10.245Z,1030.93
2017-01-19T04:29:10.215Z,1030.95
2017-01-19T04:30:10.184Z,1030.91
2017-01-19T04:31:10.158Z,1030.92
2017-01-19T04:32:10.133Z,1030.91
2017-01-19T04:33:10.105Z,1030.9
2017-01-19T04:34:10.073Z,1030.88
2017-01-19T04:35:10.042Z,1030.86
2017-01-19T04:36:10.015Z,1030.89
2017-01-19T04:37:09.984Z,1030.86
2017-01-19T04:38:09.958Z,1030.84
2017-01-19T04:39:09.930Z,1030.79
2017-01-19T04:40:09.901Z,1030.83
2017-01-19T04:41:09.870Z,1030.81
2017-01-19T04:42:09.845Z,1030.81
2017-01-19T04:43:09.812Z,1030.77
2017-01-19T04:44:09.788Z,1030.74
2017-01-19T04:45:09.759Z,1030.72
2017-01-19T04:46:09.728Z,1030.75
2017-01-19T04:47:09.701Z,1030.75
2017-01-19T04:48:09.670Z,1030.74
2017-01-19T04:49:09.648Z,1030.8
2017-01-19T04:50:09.617Z,1030.8
2017-01-19T04:51:09.586Z,1030.76
2017-01-19T04:52:09.555Z,1030.77
2017-01-19T04:53:09.524Z,1030.75
2017-01-19T04:54:09.501Z,1030.74
2017-01-19T04:55:09.471Z,1030.7
2017-01-19T04:56:09.442Z,1030.69
2017-01-19T04:57:09.411Z,1030.7
2017-01-19T04:58:09.391Z,1030.71
2017-01-19T04:59:09.352Z,1030.73
2017-01-19T05:00:09.327Z,1030.75
2017-01-19T05:01:09.296Z,1030.76
2017-01-19T05:02:09.267Z,1030.76
2017-01-19T05:03:09.233Z,1030.76
2017-01-19T05:04:09.207Z,1030.71
2017-01-19T05:05:09.180Z,1030.7
2017-01-19T05:06:09.154Z,1030.69
2017-01-19T05:07:09.121Z,1030.68
2017-01-19T05:08:09.093Z,1030.69
2017-01-19T05:09:09.062Z,1030.69
2017-01-19T05:10:09.034Z,1030.64
2017-01-19T05:11:09.005Z,1030.6
2017-01-19T05:12:08.979Z,1030.53
2017-01-19T05:13:08.946Z,1030.58
2017-01-19T05:14:08.918Z,1030.59
2017-01-19T05:15:08.886Z,1030.59
2017-01-19T05:16:08.908Z,1030.59
2017-01-19T05:17:08.836Z,1030.59
2017-01-19T05:18:08.805Z,1030.62
2017-01-19T05:19:08.768Z,1030.64
2017-01-19T05:20:08.843Z,1030.61
2017-01-19T05:21:08.711Z,1030.63
2017-01-19T05:22:08.831Z,1030.6
2017-01-19T05:23:08.659Z,1030.58
2017-01-19T05:24:08.654Z,1030.56
2017-01-19T05:25:08.598Z,1030.55
2017-01-19T05:26:08.570Z,1030.53
2017-01-19T05:27:08.537Z,1030.54
2017-01-19T05:28:08.506Z,1030.54
2017-01-19T05:29:08.475Z,1030.55
2017-01-19T05:30:08.451Z,1030.59
2017-01-19T05:31:08.419Z,1030.54
2017-01-19T05:32:08.405Z,1030.5
2017-01-19T05:33:08.358Z,1030.52
2017-01-19T05:34:08.342Z,1030.54
2017-01-19T05:35:08.302Z,1030.54
2017-01-19T05:36:08.272Z,1030.53
2017-01-19T05:37:08.243Z,1030.51
2017-01-19T05:38:08.220Z,1030.51
2017-01-19T05:39:08.191Z,1030.47
2017-01-19T05:40:08.158Z,1030.43
2017-01-19T05:41:08.128Z,1030.47
2017-01-19T05:42:08.097Z,1030.44
2017-01-19T05:43:08.068Z,1030.46
2017-01-19T05:44:08.036Z,1030.44
2017-01-19T05:45:08.009Z,1030.45
2017-01-19T05:46:07.981Z,1030.44
2017-01-19T05:47:07.955Z,1030.41
2017-01-19T05:48:07.926Z,1030.44
2017-01-19T05:49:07.893Z,1030.42
2017-01-19T05:50:07.873Z,1030.39
2017-01-19T05:51:07.844Z,1030.4
2017-01-19T05:52:07.809Z,1030.34
2017-01-19T05:53:07.781Z,1030.37
2017-01-19T05:54:07.751Z,1030.32
2017-01-19T05:55:07.720Z,1030.33
2017-01-19T05:56:07.692Z,1030.33
2017-01-19T05:57:07.660Z,1030.29
2017-01-19T05:58:07.639Z,1030.31
2017-01-19T05:59:07.604Z,1030.35
2017-01-19T06:00:07.581Z,1030.34
2017-01-19T06:01:07.547Z,1030.4
2017-01-19T06:02:07.516Z,1030.4
2017-01-19T06:03:07.489Z,1030.39
2017-01-19T06:04:07.460Z,1030.44
2017-01-19T06:05:07.430Z,1030.43
2017-01-19T06:06:07.403Z,1030.42
2017-01-19T06:07:07.375Z,1030.42
2017-01-19T06:08:07.351Z,1030.42
2017-01-19T06:09:07.318Z,1030.4
2017-01-19T06:10:07.291Z,1030.38
2017-01-19T06:11:07.258Z,1030.4
2017-01-19T06:12:07.230Z,1030.43
2017-01-19T06:13:07.200Z,1030.43
2017-01-19T06:14:07.169Z,1030.39
2017-01-19T06:15:07.144Z,1030.39
2017-01-19T06:16:07.111Z,1030.41
2017-01-19T06:17:07.086Z,1030.4
2017-01-19T06:18:07.054Z,1030.38
2017-01-19T06:19:07.028Z,1030.42
2017-01-19T06:20:06.998Z,1030.47
2017-01-19T06:21:06.970Z,1030.47
2017-01-19T06:22:06.937Z,1030.48
2017-01-19T06:23:06.915Z,1030.51
2017-01-19T06:24:06.883Z,1030.51
2017-01-19T06:25:06.857Z,1030.51
2017-01-19T06:26:06.823Z,1030.52
2017-01-19T06:27:06.793Z,1030.56
2017-01-19T06:28:06.779Z,1030.6
2017-01-19T06:29:06.740Z,1030.6
2017-01-19T06:30:06.716Z,1030.57
2017-01-19T06:31:06.680Z,1030.58
2017-01-19T06:32:06.658Z,1030.56
2017-01-19T06:33:06.627Z,1030.61
2017-01-19T06:34:06.595Z,1030.6
2017-01-19T06:35:06.564Z,1030.58
2017-01-19T06:36:06.541Z,1030.62
2017-01-19T06:37:06.505Z,1030.63
2017-01-19T06:38:06.478Z,1030.62
2017-01-19T06:39:06.456Z,1030.64
2017-01-19T06:40:06.421Z,1030.62
2017-01-19T06:41:06.398Z,1030.65
2017-01-19T06:42:06.367Z,1030.62
2017-01-19T06:43:06.333Z,1030.64
2017-01-19T06:44:06.315Z,1030.64
2017-01-19T06:45:06.277Z,1030.62
2017-01-19T06:46:06.256Z,1030.68
2017-01-19T06:47:06.222Z,1030.66
2017-01-19T06:48:06.192Z,1030.69
2017-01-19T06:49:06.161Z,1030.7
2017-01-19T06:50:06.131Z,1030.7
2017-01-19T06:51:06.109Z,1030.65
2017-01-19T06:52:06.074Z,1030.69
2017-01-19T06:53:06.048Z,1030.72
2017-01-19T06:54:06.018Z,1030.67
2017-01-19T06:55:05.987Z,1030.66
2017-01-19T06:56:05.965Z,1030.67
2017-01-19T06:57:05.936Z,1030.7
2017-01-19T06:58:05.905Z,1030.72
2017-01-19T06:59:05.872Z,1030.71
2017-01-19T07:00:05.845Z,1030.68
2017-01-19T07:01:05.819Z,1030.71
2017-01-19T07:02:05.789Z,1030.72
2017-01-19T07:03:05.763Z,1030.73
2017-01-19T07:04:05.744Z,1030.76
2017-01-19T07:05:05.712Z,1030.74
2017-01-19T07:06:05.671Z,1030.75
2017-01-19T07:07:05.651Z,1030.77
2017-01-19T07:08:05.613Z,1030.77
2017-01-19T07:09:05.591Z,1030.74
2017-01-19T07:10:05.558Z,1030.74
2017-01-19T07:11:05.528Z,1030.83
2017-01-19T07:12:05.501Z,1030.8
2017-01-19T07:13:05.478Z,1030.85
2017-01-19T07:14:05.448Z,1030.88
2017-01-19T07:15:05.416Z,1030.92
2017-01-19T07:16:05.389Z,1030.9
2017-01-19T07:17:05.355Z,1030.89
2017-01-19T07:18:05.324Z,1030.88
2017-01-19T07:19:05.295Z,1030.91
2017-01-19T07:20:05.274Z,1030.9
2017-01-19T07:21:05.241Z,1030.97
2017-01-19T07:22:05.212Z,1030.99
2017-01-19T07:23:05.192Z,1030.97
2017-01-19T07:24:05.156Z,1031
2017-01-19T07:25:05.126Z,1031.02
2017-01-19T07:26:05.097Z,1031.01
2017-01-19T07:27:05.070Z,1031.05
2017-01-19T07:28:05.039Z,1031.06
2017-01-19T07:29:05.009Z,1031.07
2017-01-19T07:30:04.981Z,1031.03
2017-01-19T07:31:04.948Z,1031.07
2017-01-19T07:32:04.924Z,1031.11
2017-01-19T07:33:04.893Z,1031.1
2017-01-19T07:34:04.867Z,1031.1
2017-01-19T07:35:04.834Z,1031.1
2017-01-19T07:36:04.815Z,1031.17
2017-01-19T07:37:04.776Z,1031.13
2017-01-19T07:38:04.752Z,1031.14
2017-01-19T07:39:04.724Z,1031.06
2017-01-19T07:40:04.691Z,1031.07
2017-01-19T07:41:04.660Z,1031.07
2017-01-19T07:42:04.632Z,1031.06
2017-01-19T07:43:04.603Z,1031.1
2017-01-19T07:44:04.574Z,1031.08
2017-01-19T07:45:04.548Z,1031.14
2017-01-19T07:46:04.517Z,1031.12
2017-01-19T07:47:04.490Z,1031.12
2017-01-19T07:48:04.466Z,1031.13
2017-01-19T07:49:04.482Z,1031.1
2017-01-19T07:50:04.400Z,1031.09
2017-01-19T07:51:04.374Z,1031.09
2017-01-19T07:52:04.343Z,1031.09
2017-01-19T07:53:04.318Z,1031.06
2017-01-19T07:54:04.289Z,1031.02
2017-01-19T07:55:04.257Z,1031.07
2017-01-19T07:56:04.231Z,1031.07
2017-01-19T07:57:04.206Z,1031.07
2017-01-19T07:58:04.173Z,1031.09
2017-01-19T07:59:04.142Z,1031.05
2017-01-19T08:00:04.119Z,1031.05
2017-01-19T08:01:04.099Z,1031.08
2017-01-19T08:02:04.057Z,1031.05
2017-01-19T08:03:04.032Z,1031.04
2017-01-19T08:04:04.000Z,1031.03
2017-01-19T08:05:03.969Z,1031.05
2017-01-19T08:06:03.944Z,1030.99
2017-01-19T08:07:03.914Z,1031.06
2017-01-19T08:08:03.895Z,1031.04
2017-01-19T08:09:03.859Z,1031.01
2017-01-19T08:10:03.834Z,1030.97
2017-01-19T08:11:03.804Z,1031
2017-01-19T08:12:03.772Z,1031.02
2017-01-19T08:13:03.745Z,1031.06
2017-01-19T08:14:03.713Z,1031.04
2017-01-19T08:15:03.685Z,1031.05
2017-01-19T08:16:03.660Z,1031.09
2017-01-19T08:17:03.629Z,1031.05
2017-01-19T08:18:03.607Z,1031.09
2017-01-19T08:19:03.578Z,1031.14
2017-01-19T08:20:03.547Z,1031.1
2017-01-19T08:21:03.517Z,1031.09
2017-01-19T08:22:03.488Z,1031.06
2017-01-19T08:23:03.459Z,1031.07
2017-01-19T08:24:03.430Z,1031.09
2017-01-19T08:25:03.405Z,1031.06
2017-01-19T08:26:03.378Z,1031.07
2017-01-19T08:27:03.353Z,1031.06
2017-01-19T08:28:03.322Z,1031.02
2017-01-19T08:29:03.293Z,1030.97
2017-01-19T08:30:03.264Z,1030.96
2017-01-19T08:31:03.238Z,1031.05
2017-01-19T08:32:03.211Z,1031.03
2017-01-19T08:33:03.190Z,1031.04
2017-01-19T08:34:03.156Z,1031.08
2017-01-19T08:35:03.129Z,1031.04
2017-01-19T08:36:03.104Z,1031.08
2017-01-19T08:37:03.078Z,1031.1
2017-01-19T08:38:03.049Z,1031.08
2017-01-19T08:39:03.022Z,1031.07
2017-01-19T08:40:02.994Z,1031.1
2017-01-19T08:41:02.975Z,1031.12
2017-01-19T08:42:02.949Z,1031.15
2017-01-19T08:43:02.913Z,1031.16
2017-01-19T08:44:02.891Z,1031.14
2017-01-19T08:45:02.864Z,1031.21
2017-01-19T08:46:02.891Z,1031.26
2017-01-19T08:47:02.809Z,1031.26
2017-01-19T08:48:02.790Z,1031.27
2017-01-19T08:49:02.761Z,1031.25
2017-01-19T08:50:02.741Z,1031.24
2017-01-19T08:51:02.709Z,1031.26
2017-01-19T08:52:02.751Z,1031.32
2017-01-19T08:53:02.661Z,1031.36
2017-01-19T08:54:02.639Z,1031.39
2017-01-19T08:55:02.615Z,1031.43
2017-01-19T08:56:02.591Z,1031.44
2017-01-19T08:57:02.566Z,1031.41
2017-01-19T08:58:02.543Z,1031.5
2017-01-19T08:59:02.526Z,1031.57
2017-01-19T09:00:02.584Z,1031.59
2017-01-19T09:01:02.480Z,1031.64
2017-01-19T09:02:02.512Z,1031.61
2017-01-19T09:03:02.439Z,1031.63
2017-01-19T09:04:02.437Z,1031.65
2017-01-19T09:05:02.400Z,1031.67
2017-01-19T09:06:02.383Z,1031.7
2017-01-19T09:07:02.361Z,1031.79
2017-01-19T09:08:02.346Z,1031.8
2017-01-19T09:09:02.322Z,1031.8
2017-01-19T09:10:02.307Z,1031.82
2017-01-19T09:11:02.291Z,1031.84
2017-01-19T09:12:02.270Z,1031.82
2017-01-19T09:13:02.259Z,1031.83
2017-01-19T09:14:02.317Z,1031.78
2017-01-19T09:15:02.210Z,1031.78
2017-01-19T09:16:02.195Z,1031.79
2017-01-19T09:17:02.171Z,1031.78
2017-01-19T09:18:02.157Z,1031.81
2017-01-19T09:19:02.136Z,1031.74
2017-01-19T09:20:02.129Z,1031.8
2017-01-19T09:21:02.096Z,1031.79
2017-01-19T09:22:02.084Z,1031.82
2017-01-19T09:23:02.060Z,1031.84
2017-01-19T09:24:02.037Z,1031.87
2017-01-19T09:25:02.021Z,1031.87
2017-01-19T09:26:01.999Z,1031.84
2017-01-19T09:27:01.980Z,1031.8
2017-01-19T09:28:01.960Z,1031.8
2017-01-19T09:29:01.943Z,1031.79
2017-01-19T09:30:01.925Z,1031.8
2017-01-19T09:31:01.905Z,1031.77
2017-01-19T09:32:01.886Z,1031.77
2017-01-19T09:33:01.870Z,1031.78
2017-01-19T09:34:01.855Z,1031.79
2017-01-19T09:35:01.835Z,1031.82
2017-01-19T09:36:01.818Z,1031.79
2017-01-19T09:37:01.800Z,1031.78
2017-01-19T09:38:01.784Z,1031.8
2017-01-19T09:39:01.763Z,1031.84
2017-01-19T09:40:01.753Z,1031.85
2017-01-19T09:41:01.730Z,1031.88
2017-01-19T09:42:01.713Z,1031.86
2017-01-19T09:43:01.700Z,1031.92
2017-01-19T09:44:01.679Z,1031.97
2017-01-19T09:45:01.670Z,1031.92
2017-01-19T09:46:01.649Z,1031.88
2017-01-19T09:47:01.634Z,1031.89
2017-01-19T09:48:01.619Z,1031.88
2017-01-19T09:49:01.607Z,1031.89
2017-01-19T09:50:01.586Z,1031.96
2017-01-19T09:51:01.565Z,1031.92
2017-01-19T09:52:01.555Z,1031.89
2017-01-19T09:53:01.535Z,1031.95
2017-01-19T09:54:01.524Z,1031.88
2017-01-19T09:55:01.504Z,1031.91
2017-01-19T09:56:01.492Z,1031.88
2017-01-19T09:57:01.477Z,1031.91
2017-01-19T09:58:01.453Z,1031.86
2017-01-19T09:59:01.431Z,1031.85
2017-01-19T10:00:01.413Z,1031.88
2017-01-19T10:01:01.399Z,1031.9
2017-01-19T10:02:01.380Z,1031.89
2017-01-19T10:03:01.362Z,1031.91
2017-01-19T10:04:01.338Z,1031.95
2017-01-19T10:05:01.326Z,1031.9
2017-01-19T10:06:01.305Z,1031.87
2017-01-19T10:07:01.288Z,1031.82
2017-01-19T10:08:01.266Z,1031.82
2017-01-19T10:09:01.245Z,1031.78
2017-01-19T10:10:01.226Z,1031.76
2017-01-19T10:11:01.206Z,1031.73
2017-01-19T10:12:01.193Z,1031.72
2017-01-19T10:13:01.164Z,1031.7
2017-01-19T10:14:01.145Z,1031.73
2017-01-19T10:15:01.135Z,1031.71
2017-01-19T10:16:01.114Z,1031.64
2017-01-19T10:17:01.083Z,1031.68
2017-01-19T10:18:01.063Z,1031.69
2017-01-19T10:19:01.050Z,1031.68
2017-01-19T10:20:01.030Z,1031.67
2017-01-19T10:21:01.001Z,1031.64
2017-01-19T10:22:00.979Z,1031.61
2017-01-19T10:23:00.959Z,1031.6
2017-01-19T10:24:00.939Z,1031.56
2017-01-19T10:25:00.916Z,1031.51
2017-01-19T10:26:00.947Z,1031.51
2017-01-19T10:27:00.877Z,1031.49
2017-01-19T10:28:00.955Z,1031.49
2017-01-19T10:29:00.830Z,1031.46
2017-01-19T10:30:00.840Z,1031.43
2017-01-19T10:31:00.788Z,1031.43
2017-01-19T10:32:00.766Z,1031.46
2017-01-19T10:33:00.743Z,1031.47
2017-01-19T10:34:00.772Z,1031.51
2017-01-19T10:35:00.698Z,1031.44
2017-01-19T10:36:00.713Z,1031.48
2017-01-19T10:37:00.656Z,1031.48
2017-01-19T10:38:00.639Z,1031.46
2017-01-19T10:39:00.610Z,1031.47
2017-01-19T10:40:00.600Z,1031.44
2017-01-19T10:41:00.570Z,1031.48
2017-01-19T10:42:00.546Z,1031.47
2017-01-19T10:43:00.528Z,1031.49
2017-01-19T10:44:00.504Z,1031.43
2017-01-19T10:45:00.481Z,1031.39
2017-01-19T10:46:00.463Z,1031.34
2017-01-19T10:47:00.437Z,1031.36
2017-01-19T10:48:00.419Z,1031.43
2017-01-19T10:49:00.397Z,1031.42
2017-01-19T10:50:00.373Z,1031.4
2017-01-19T10:51:00.354Z,1031.43
2017-01-19T10:52:00.330Z,1031.44
2017-01-19T10:53:00.307Z,1031.42
2017-01-19T10:54:00.300Z,1031.41
2017-01-19T10:55:00.264Z,1031.38
2017-01-19T10:56:00.251Z,1031.36
2017-01-19T10:57:00.226Z,1031.36
2017-01-19T10:58:00.212Z,1031.37
2017-01-19T10:59:00.191Z,1031.35
2017-01-19T11:00:00.169Z,1031.29
2017-01-19T11:01:00.138Z,1031.26
2017-01-19T11:02:00.125Z,1031.26
2017-01-19T11:03:00.111Z,1031.23
2017-01-19T11:04:00.080Z,1031.23
2017-01-19T11:05:00.057Z,1031.21
2017-01-19T11:06:00.038Z,1031.24
2017-01-19T11:07:00.018Z,1031.19
2017-01-19T11:07:59.996Z,1031.16
2017-01-19T11:08:59.976Z,1031.18
2017-01-19T11:09:59.966Z,1031.2
2017-01-19T11:10:59.936Z,1031.23
2017-01-19T11:11:59.917Z,1031.18
2017-01-19T11:12:59.890Z,1031.17
2017-01-19T11:13:59.871Z,1031.11
2017-01-19T11:14:59.853Z,1031.21
2017-01-19T11:15:59.832Z,1031.18
2017-01-19T11:16:59.812Z,1031.16
2017-01-19T11:17:59.790Z,1031.11
2017-01-19T11:18:59.769Z,1031.13
2017-01-19T11:19:59.752Z,1031.12
2017-01-19T11:20:59.732Z,1031.13
2017-01-19T11:21:59.710Z,1031.15
2017-01-19T11:22:59.688Z,1031.18
2017-01-19T11:23:59.674Z,1031.28
2017-01-19T11:24:59.655Z,1031.25
2017-01-19T11:25:59.638Z,1031.22
2017-01-19T11:26:59.616Z,1031.18
2017-01-19T11:27:59.596Z,1031.14
2017-01-19T11:28:59.587Z,1031.18
2017-01-19T11:29:59.563Z,1031.16
2017-01-19T11:30:59.546Z,1031.12
2017-01-19T11:31:59.534Z,1031.12
2017-01-19T11:32:59.506Z,1031.14
2017-01-19T11:33:59.494Z,1031.15
2017-01-19T11:34:59.483Z,1031.12
2017-01-19T11:35:59.453Z,1031.02
2017-01-19T11:36:59.437Z,1030.95
2017-01-19T11:37:59.424Z,1030.94
2017-01-19T11:38:59.403Z,1030.95
2017-01-19T11:39:59.381Z,1030.99
2017-01-19T11:40:59.364Z,1030.98
2017-01-19T11:41:59.350Z,1030.98
2017-01-19T11:42:59.330Z,1030.95
2017-01-19T11:43:59.308Z,1030.92
2017-01-19T11:44:59.287Z,1030.89
2017-01-19T11:45:59.268Z,1030.9
2017-01-19T11:46:59.247Z,1030.86
2017-01-19T11:47:59.226Z,1030.89
2017-01-19T11:48:59.207Z,1030.86
2017-01-19T11:49:59.187Z,1030.88
2017-01-19T11:50:59.173Z,1030.87
2017-01-19T11:51:59.145Z,1030.87
2017-01-19T11:52:59.128Z,1030.91
2017-01-19T11:53:59.104Z,1030.88
2017-01-19T11:54:59.084Z,1030.9
2017-01-19T11:55:59.064Z,1030.93
2017-01-19T11:56:59.042Z,1030.94
2017-01-19T11:57:59.032Z,1030.86
2017-01-19T11:58:59.005Z,1030.84
2017-01-19T11:59:58.984Z,1030.94
2017-01-19T12:00:58.970Z,1030.94
2017-01-19T12:01:58.945Z,1030.98
2017-01-19T12:02:58.933Z,1030.98
2017-01-19T12:03:58.912Z,1030.96
2017-01-19T12:04:58.889Z,1031
2017-01-19T12:05:58.872Z,1030.97
2017-01-19T12:06:58.858Z,1030.98
2017-01-19T12:07:58.838Z,1030.94